sensor_id;sensor_type;location;lat;lon;timestamp;P1;durP1;ratioP1;P2;durP2;ratioP2
28958;SDS011;16066;0.000;0.000;2024-01-30T06:00:32;16.00;;;11.80;;
28958;SDS011;16066;0.000;0.000;2024-01-30T06:02:57;20.87;;;13.50;;
28958;SDS011;16066;0.000;0.000;2024-01-30T06:05:23;22.10;;;13.83;;
28958;SDS011;16066;0.000;0.000;2024-01-30T06:07:48;18.20;;;12.60;;
28958;SDS011;16066;0.000;0.000;2024-01-30T06:10:14;18.20;;;13.60;;
28958;SDS011;16066;0.000;0.000;2024-01-30T06:12:39;18.40;;;12.40;;
28958;SDS011;16066;0.000;0.000;2024-01-30T06:15:05;16.53;;;11.90;;
28958;SDS011;16066;0.000;0.000;2024-01-30T06:17:31;19.50;;;13.60;;
28958;SDS011;16066;0.000;0.000;2024-01-30T06:19:57;18.77;;;12.63;;
28958;SDS011;16066;0.000;0.000;2024-01-30T06:22:23;21.30;;;13.63;;
28958;SDS011;16066;0.000;0.000;2024-01-30T06:24:48;19.17;;;13.13;;
28958;SDS011;16066;0.000;0.000;2024-01-30T06:27:14;17.77;;;12.23;;
28958;SDS011;16066;0.000;0.000;2024-01-30T06:29:40;19.77;;;13.30;;
28958;SDS011;16066;0.000;0.000;2024-01-30T06:32:07;19.40;;;12.97;;
28958;SDS011;16066;0.000;0.000;2024-01-30T06:34:33;18.03;;;12.03;;
28958;SDS011;16066;0.000;0.000;2024-01-30T06:36:58;23.50;;;14.80;;
28958;SDS011;16066;0.000;0.000;2024-01-30T06:39:24;20.03;;;13.00;;
28958;SDS011;16066;0.000;0.000;2024-01-30T06:41:50;18.03;;;13.13;;
28958;SDS011;16066;0.000;0.000;2024-01-30T06:44:15;27.77;;;16.57;;
28958;SDS011;16066;0.000;0.000;2024-01-30T06:46:41;35.03;;;23.10;;
28958;SDS011;16066;0.000;0.000;2024-01-30T06:49:07;23.57;;;16.70;;
28958;SDS011;16066;0.000;0.000;2024-01-30T06:51:32;19.90;;;13.40;;
28958;SDS011;16066;0.000;0.000;2024-01-30T06:53:58;26.27;;;16.50;;
28958;SDS011;16066;0.000;0.000;2024-01-30T06:56:23;23.37;;;15.47;;
28958;SDS011;16066;0.000;0.000;2024-01-30T06:58:49;24.13;;;17.33;;
28958;SDS011;16066;0.000;0.000;2024-01-30T07:01:15;24.83;;;16.40;;
28958;SDS011;16066;0.000;0.000;2024-01-30T07:03:41;24.07;;;17.60;;
28958;SDS011;16066;0.000;0.000;2024-01-30T07:06:07;21.37;;;15.73;;
28958;SDS011;16066;0.000;0.000;2024-01-30T07:08:33;20.43;;;14.60;;
28958;SDS011;16066;0.000;0.000;2024-01-30T07:10:58;19.23;;;11.90;;
28958;SDS011;16066;0.000;0.000;2024-01-30T07:13:24;18.67;;;14.07;;
28958;SDS011;16066;0.000;0.000;2024-01-30T07:15:49;21.90;;;13.57;;
28958;SDS011;16066;0.000;0.000;2024-01-30T07:18:15;22.63;;;15.60;;
28958;SDS011;16066;0.000;0.000;2024-01-30T07:20:41;20.07;;;14.20;;
28958;SDS011;16066;0.000;0.000;2024-01-30T07:23:14;21.60;;;13.40;;
28958;SDS011;16066;0.000;0.000;2024-01-30T07:25:42;23.73;;;12.70;;
28958;SDS011;16066;0.000;0.000;2024-01-30T07:28:11;21.73;;;14.87;;
28958;SDS011;16066;0.000;0.000;2024-01-30T07:30:41;20.63;;;13.70;;
28958;SDS011;16066;0.000;0.000;2024-01-30T07:33:07;21.40;;;15.17;;
28958;SDS011;16066;0.000;0.000;2024-01-30T07:35:33;18.30;;;13.90;;
28958;SDS011;16066;0.000;0.000;2024-01-30T07:37:59;19.03;;;13.03;;
28958;SDS011;16066;0.000;0.000;2024-01-30T07:40:24;19.63;;;14.37;;
28958;SDS011;16066;0.000;0.000;2024-01-30T07:42:50;18.60;;;13.53;;
28958;SDS011;16066;0.000;0.000;2024-01-30T07:45:16;21.50;;;15.07;;
28958;SDS011;16066;0.000;0.000;2024-01-30T07:47:41;23.00;;;16.57;;
28958;SDS011;16066;0.000;0.000;2024-01-30T07:50:07;23.37;;;16.93;;
28958;SDS011;16066;0.000;0.000;2024-01-30T07:52:33;23.13;;;16.10;;
28958;SDS011;16066;0.000;0.000;2024-01-30T07:54:59;20.77;;;15.50;;
28958;SDS011;16066;0.000;0.000;2024-01-30T07:57:24;23.43;;;15.70;;
28958;SDS011;16066;0.000;0.000;2024-01-30T07:59:50;23.17;;;15.60;;
28958;SDS011;16066;0.000;0.000;2024-01-30T08:02:15;26.40;;;16.17;;
28958;SDS011;16066;0.000;0.000;2024-01-30T08:04:41;26.07;;;17.47;;
28958;SDS011;16066;0.000;0.000;2024-01-30T08:07:06;23.93;;;16.67;;
28958;SDS011;16066;0.000;0.000;2024-01-30T08:09:32;25.17;;;17.33;;
28958;SDS011;16066;0.000;0.000;2024-01-30T08:11:57;26.47;;;17.30;;
28958;SDS011;16066;0.000;0.000;2024-01-30T08:14:23;22.17;;;15.53;;
28958;SDS011;16066;0.000;0.000;2024-01-30T08:16:48;25.30;;;17.37;;
28958;SDS011;16066;0.000;0.000;2024-01-30T08:19:14;36.87;;;17.53;;
28958;SDS011;16066;0.000;0.000;2024-01-30T08:21:40;26.63;;;16.80;;
28958;SDS011;16066;0.000;0.000;2024-01-30T08:24:06;22.03;;;16.13;;
28958;SDS011;16066;0.000;0.000;2024-01-30T08:26:32;26.97;;;15.10;;
28958;SDS011;16066;0.000;0.000;2024-01-30T08:28:58;26.43;;;16.97;;
28958;SDS011;16066;0.000;0.000;2024-01-30T08:31:24;25.50;;;16.07;;
28958;SDS011;16066;0.000;0.000;2024-01-30T08:33:50;18.93;;;13.40;;
28958;SDS011;16066;0.000;0.000;2024-01-30T08:36:16;22.00;;;15.17;;
28958;SDS011;16066;0.000;0.000;2024-01-30T08:38:42;22.53;;;14.30;;
28958;SDS011;16066;0.000;0.000;2024-01-30T08:41:08;23.40;;;14.80;;
28958;SDS011;16066;0.000;0.000;2024-01-30T08:43:33;25.03;;;14.50;;
28958;SDS011;16066;0.000;0.000;2024-01-30T08:45:59;22.80;;;15.43;;
28958;SDS011;16066;0.000;0.000;2024-01-30T08:48:25;23.13;;;15.50;;
28958;SDS011;16066;0.000;0.000;2024-01-30T08:50:51;20.50;;;13.90;;
28958;SDS011;16066;0.000;0.000;2024-01-30T08:53:17;41.30;;;15.00;;
28958;SDS011;16066;0.000;0.000;2024-01-30T08:55:42;21.03;;;14.93;;
28958;SDS011;16066;0.000;0.000;2024-01-30T08:58:08;18.53;;;13.33;;
28958;SDS011;16066;0.000;0.000;2024-01-30T09:00:33;24.23;;;15.00;;
28958;SDS011;16066;0.000;0.000;2024-01-30T09:02:59;23.83;;;15.90;;
28958;SDS011;16066;0.000;0.000;2024-01-30T09:05:24;21.37;;;13.87;;
28958;SDS011;16066;0.000;0.000;2024-01-30T09:07:50;21.57;;;12.80;;
28958;SDS011;16066;0.000;0.000;2024-01-30T09:10:15;21.80;;;13.90;;
28958;SDS011;16066;0.000;0.000;2024-01-30T09:12:41;20.13;;;12.60;;
28958;SDS011;16066;0.000;0.000;2024-01-30T09:15:06;15.00;;;11.03;;
28958;SDS011;16066;0.000;0.000;2024-01-30T09:17:33;17.70;;;12.93;;
28958;SDS011;16066;0.000;0.000;2024-01-30T09:19:59;17.70;;;11.70;;
28958;SDS011;16066;0.000;0.000;2024-01-30T09:22:24;17.00;;;10.93;;
28958;SDS011;16066;0.000;0.000;2024-01-30T09:24:50;18.77;;;10.90;;
28958;SDS011;16066;0.000;0.000;2024-01-30T09:27:16;23.70;;;10.60;;
28958;SDS011;16066;0.000;0.000;2024-01-30T09:29:41;20.97;;;10.57;;
28958;SDS011;16066;0.000;0.000;2024-01-30T09:32:07;20.63;;;10.83;;
28958;SDS011;16066;0.000;0.000;2024-01-30T09:34:34;14.37;;;9.63;;
28958;SDS011;16066;0.000;0.000;2024-01-30T09:36:59;19.13;;;11.33;;
28958;SDS011;16066;0.000;0.000;2024-01-30T09:39:25;17.87;;;10.73;;
28958;SDS011;16066;0.000;0.000;2024-01-30T09:41:55;16.23;;;11.10;;
28958;SDS011;16066;0.000;0.000;2024-01-30T09:44:29;18.73;;;10.40;;
28958;SDS011;16066;0.000;0.000;2024-01-30T09:46:56;15.30;;;9.70;;
28958;SDS011;16066;0.000;0.000;2024-01-30T09:49:28;21.03;;;9.63;;
28958;SDS011;16066;0.000;0.000;2024-01-30T09:51:56;19.03;;;10.10;;
28958;SDS011;16066;0.000;0.000;2024-01-30T09:54:22;13.40;;;8.47;;
28958;SDS011;16066;0.000;0.000;2024-01-30T09:56:48;16.30;;;9.57;;
28958;SDS011;16066;0.000;0.000;2024-01-30T09:59:14;12.73;;;9.23;;
28958;SDS011;16066;0.000;0.000;2024-01-30T10:01:40;19.13;;;9.93;;
28958;SDS011;16066;0.000;0.000;2024-01-30T10:04:05;12.13;;;8.53;;
28958;SDS011;16066;0.000;0.000;2024-01-30T10:06:32;13.40;;;8.43;;
28958;SDS011;16066;0.000;0.000;2024-01-30T10:08:57;17.00;;;8.40;;
28958;SDS011;16066;0.000;0.000;2024-01-30T10:11:23;11.13;;;8.23;;
28958;SDS011;16066;0.000;0.000;2024-01-30T10:13:48;12.50;;;9.53;;
28958;SDS011;16066;0.000;0.000;2024-01-30T10:16:14;20.60;;;11.17;;
28958;SDS011;16066;0.000;0.000;2024-01-30T10:18:41;11.87;;;9.10;;
28958;SDS011;16066;0.000;0.000;2024-01-30T10:21:07;17.90;;;10.40;;
28958;SDS011;16066;0.000;0.000;2024-01-30T10:23:33;19.57;;;9.60;;
28958;SDS011;16066;0.000;0.000;2024-01-30T10:25:59;15.27;;;9.10;;
28958;SDS011;16066;0.000;0.000;2024-01-30T10:28:27;14.90;;;9.50;;
28958;SDS011;16066;0.000;0.000;2024-01-30T10:30:58;12.17;;;8.90;;
28958;SDS011;16066;0.000;0.000;2024-01-30T10:33:24;14.70;;;8.90;;
28958;SDS011;16066;0.000;0.000;2024-01-30T10:35:51;13.13;;;9.83;;
28958;SDS011;16066;0.000;0.000;2024-01-30T10:38:17;14.40;;;9.80;;
28958;SDS011;16066;0.000;0.000;2024-01-30T10:40:45;13.40;;;9.00;;
28958;SDS011;16066;0.000;0.000;2024-01-30T10:43:11;15.67;;;9.60;;
28958;SDS011;16066;0.000;0.000;2024-01-30T10:45:40;14.30;;;9.27;;
28958;SDS011;16066;0.000;0.000;2024-01-30T10:48:13;13.60;;;8.60;;
28958;SDS011;16066;0.000;0.000;2024-01-30T10:50:39;12.70;;;7.87;;
28958;SDS011;16066;0.000;0.000;2024-01-30T10:53:06;19.00;;;8.70;;
28958;SDS011;16066;0.000;0.000;2024-01-30T10:55:34;22.83;;;8.20;;
28958;SDS011;16066;0.000;0.000;2024-01-30T10:58:00;14.83;;;7.97;;
28958;SDS011;16066;0.000;0.000;2024-01-30T11:00:26;16.53;;;7.57;;
28958;SDS011;16066;0.000;0.000;2024-01-30T11:02:52;15.93;;;8.23;;
28958;SDS011;16066;0.000;0.000;2024-01-30T11:05:24;12.23;;;6.47;;
28958;SDS011;16066;0.000;0.000;2024-01-30T11:07:51;13.00;;;6.30;;
28958;SDS011;16066;0.000;0.000;2024-01-30T11:10:17;12.63;;;6.67;;
28958;SDS011;16066;0.000;0.000;2024-01-30T11:12:42;10.20;;;6.97;;
28958;SDS011;16066;0.000;0.000;2024-01-30T11:15:10;11.43;;;6.73;;
28958;SDS011;16066;0.000;0.000;2024-01-30T11:20:15;13.13;;;6.80;;
28958;SDS011;16066;0.000;0.000;2024-01-30T11:22:42;12.57;;;7.00;;
28958;SDS011;16066;0.000;0.000;2024-01-30T11:25:13;10.07;;;6.40;;
28958;SDS011;16066;0.000;0.000;2024-01-30T11:27:42;9.63;;;6.13;;
28958;SDS011;16066;0.000;0.000;2024-01-30T11:30:09;10.80;;;6.07;;
28958;SDS011;16066;0.000;0.000;2024-01-30T11:32:35;9.83;;;6.60;;
28958;SDS011;16066;0.000;0.000;2024-01-30T11:35:05;7.23;;;5.40;;
28958;SDS011;16066;0.000;0.000;2024-01-30T11:37:36;8.13;;;5.60;;
28958;SDS011;16066;0.000;0.000;2024-01-30T11:40:05;12.07;;;5.90;;
28958;SDS011;16066;0.000;0.000;2024-01-30T11:42:31;10.60;;;6.00;;
28958;SDS011;16066;0.000;0.000;2024-01-30T11:44:59;13.43;;;6.23;;
28958;SDS011;16066;0.000;0.000;2024-01-30T11:47:26;9.70;;;6.20;;
28958;SDS011;16066;0.000;0.000;2024-01-30T11:49:52;7.87;;;5.80;;
28958;SDS011;16066;0.000;0.000;2024-01-30T11:52:18;7.47;;;5.30;;
28958;SDS011;16066;0.000;0.000;2024-01-30T11:54:43;11.13;;;5.33;;
28958;SDS011;16066;0.000;0.000;2024-01-30T11:57:09;8.67;;;5.47;;
28958;SDS011;16066;0.000;0.000;2024-01-30T11:59:34;7.97;;;5.70;;
28958;SDS011;16066;0.000;0.000;2024-01-30T12:02:00;5.97;;;4.73;;
28958;SDS011;16066;0.000;0.000;2024-01-30T12:04:28;13.80;;;5.03;;
28958;SDS011;16066;0.000;0.000;2024-01-30T12:06:54;7.50;;;5.47;;
28958;SDS011;16066;0.000;0.000;2024-01-30T12:09:20;9.53;;;5.67;;
28958;SDS011;16066;0.000;0.000;2024-01-30T12:11:47;7.93;;;5.20;;
28958;SDS011;16066;0.000;0.000;2024-01-30T12:14:13;7.67;;;5.50;;
28958;SDS011;16066;0.000;0.000;2024-01-30T12:16:40;12.00;;;6.37;;
28958;SDS011;16066;0.000;0.000;2024-01-30T12:19:06;13.67;;;5.60;;
28958;SDS011;16066;0.000;0.000;2024-01-30T12:21:32;8.47;;;5.33;;
28958;SDS011;16066;0.000;0.000;2024-01-30T12:23:58;8.00;;;4.97;;
28958;SDS011;16066;0.000;0.000;2024-01-30T12:26:25;7.53;;;5.47;;
28958;SDS011;16066;0.000;0.000;2024-01-30T12:28:51;5.63;;;4.90;;
28958;SDS011;16066;0.000;0.000;2024-01-30T12:31:25;7.33;;;5.00;;
28958;SDS011;16066;0.000;0.000;2024-01-30T12:33:52;7.10;;;4.77;;
28958;SDS011;16066;0.000;0.000;2024-01-30T12:36:17;14.77;;;5.37;;
28958;SDS011;16066;0.000;0.000;2024-01-30T12:38:43;9.00;;;4.63;;
28958;SDS011;16066;0.000;0.000;2024-01-30T12:41:08;8.83;;;4.70;;
28958;SDS011;16066;0.000;0.000;2024-01-30T12:43:35;7.87;;;5.17;;
28958;SDS011;16066;0.000;0.000;2024-01-30T12:46:01;10.53;;;4.80;;
28958;SDS011;16066;0.000;0.000;2024-01-30T12:48:27;8.93;;;4.47;;
28958;SDS011;16066;0.000;0.000;2024-01-30T12:50:54;8.13;;;4.07;;
28958;SDS011;16066;0.000;0.000;2024-01-30T12:53:20;14.97;;;5.17;;
28958;SDS011;16066;0.000;0.000;2024-01-30T12:55:46;8.47;;;4.67;;
28958;SDS011;16066;0.000;0.000;2024-01-30T12:58:12;9.27;;;5.23;;
28958;SDS011;16066;0.000;0.000;2024-01-30T13:00:37;11.97;;;5.50;;
28958;SDS011;16066;0.000;0.000;2024-01-30T13:03:03;7.57;;;5.17;;
28958;SDS011;16066;0.000;0.000;2024-01-30T13:05:29;9.83;;;4.27;;
28958;SDS011;16066;0.000;0.000;2024-01-30T13:07:54;7.87;;;4.80;;
28958;SDS011;16066;0.000;0.000;2024-01-30T13:10:22;12.33;;;4.73;;
28958;SDS011;16066;0.000;0.000;2024-01-30T13:12:47;11.23;;;4.77;;
28958;SDS011;16066;0.000;0.000;2024-01-30T13:15:13;7.77;;;5.30;;
28958;SDS011;16066;0.000;0.000;2024-01-30T13:17:39;7.00;;;4.43;;
28958;SDS011;16066;0.000;0.000;2024-01-30T13:20:04;9.70;;;4.73;;
28958;SDS011;16066;0.000;0.000;2024-01-30T13:22:33;6.00;;;4.23;;
28958;SDS011;16066;0.000;0.000;2024-01-30T13:24:58;8.80;;;4.47;;
28958;SDS011;16066;0.000;0.000;2024-01-30T13:27:24;8.17;;;4.97;;
28958;SDS011;16066;0.000;0.000;2024-01-30T13:29:49;7.60;;;4.23;;
28958;SDS011;16066;0.000;0.000;2024-01-30T13:32:15;7.07;;;4.83;;
28958;SDS011;16066;0.000;0.000;2024-01-30T13:34:41;6.37;;;4.23;;
28958;SDS011;16066;0.000;0.000;2024-01-30T13:37:07;10.63;;;4.30;;
28958;SDS011;16066;0.000;0.000;2024-01-30T13:39:33;9.40;;;4.40;;
28958;SDS011;16066;0.000;0.000;2024-01-30T13:41:59;7.33;;;4.50;;
28958;SDS011;16066;0.000;0.000;2024-01-30T13:44:24;4.73;;;3.93;;
28958;SDS011;16066;0.000;0.000;2024-01-30T13:46:50;6.47;;;4.30;;
28958;SDS011;16066;0.000;0.000;2024-01-30T13:49:15;7.27;;;4.43;;
28958;SDS011;16066;0.000;0.000;2024-01-30T13:51:41;8.07;;;5.00;;
28958;SDS011;16066;0.000;0.000;2024-01-30T13:54:07;6.60;;;4.67;;
28958;SDS011;16066;0.000;0.000;2024-01-30T13:56:33;6.63;;;4.30;;
28958;SDS011;16066;0.000;0.000;2024-01-30T13:58:59;5.90;;;3.93;;
28958;SDS011;16066;0.000;0.000;2024-01-30T14:01:26;6.20;;;4.00;;
28958;SDS011;16066;0.000;0.000;2024-01-30T14:03:51;5.80;;;4.20;;
28958;SDS011;16066;0.000;0.000;2024-01-30T14:06:17;6.03;;;3.77;;
28958;SDS011;16066;0.000;0.000;2024-01-30T14:08:43;4.97;;;3.47;;
28958;SDS011;16066;0.000;0.000;2024-01-30T14:11:08;4.30;;;3.83;;
28958;SDS011;16066;0.000;0.000;2024-01-30T14:13:34;8.50;;;3.97;;
28958;SDS011;16066;0.000;0.000;2024-01-30T14:16:00;6.00;;;3.70;;
28958;SDS011;16066;0.000;0.000;2024-01-30T14:18:26;7.10;;;3.53;;
28958;SDS011;16066;0.000;0.000;2024-01-30T14:20:51;5.37;;;3.30;;
28958;SDS011;16066;0.000;0.000;2024-01-30T14:23:17;5.07;;;3.87;;
28958;SDS011;16066;0.000;0.000;2024-01-30T14:25:43;5.30;;;3.67;;
28958;SDS011;16066;0.000;0.000;2024-01-30T14:28:08;6.83;;;4.43;;
28958;SDS011;16066;0.000;0.000;2024-01-30T14:30:34;6.83;;;3.90;;
28958;SDS011;16066;0.000;0.000;2024-01-30T14:33:00;4.60;;;3.43;;
28958;SDS011;16066;0.000;0.000;2024-01-30T14:35:26;6.00;;;3.73;;
28958;SDS011;16066;0.000;0.000;2024-01-30T14:37:52;6.20;;;4.00;;
28958;SDS011;16066;0.000;0.000;2024-01-30T14:40:18;5.37;;;3.77;;
28958;SDS011;16066;0.000;0.000;2024-01-30T14:42:44;8.20;;;3.73;;
28958;SDS011;16066;0.000;0.000;2024-01-30T14:45:09;3.93;;;3.10;;
28958;SDS011;16066;0.000;0.000;2024-01-30T14:47:35;7.03;;;4.10;;
28958;SDS011;16066;0.000;0.000;2024-01-30T14:50:01;4.60;;;3.70;;
28958;SDS011;16066;0.000;0.000;2024-01-30T14:52:26;5.27;;;3.37;;
28958;SDS011;16066;0.000;0.000;2024-01-30T14:54:52;5.30;;;3.10;;
28958;SDS011;16066;0.000;0.000;2024-01-30T14:57:18;7.17;;;3.40;;
28958;SDS011;16066;0.000;0.000;2024-01-30T14:59:43;5.57;;;3.50;;
28958;SDS011;16066;0.000;0.000;2024-01-30T15:02:09;5.73;;;3.83;;
28958;SDS011;16066;0.000;0.000;2024-01-30T15:04:34;4.60;;;3.10;;
28958;SDS011;16066;0.000;0.000;2024-01-30T15:07:00;8.20;;;3.40;;
28958;SDS011;16066;0.000;0.000;2024-01-30T15:09:26;4.23;;;3.10;;
28958;SDS011;16066;0.000;0.000;2024-01-30T15:11:52;5.37;;;3.27;;
28958;SDS011;16066;0.000;0.000;2024-01-30T15:14:17;8.53;;;3.83;;
28958;SDS011;16066;0.000;0.000;2024-01-30T15:16:43;5.10;;;3.83;;
28958;SDS011;16066;0.000;0.000;2024-01-30T15:19:09;5.40;;;3.23;;
28958;SDS011;16066;0.000;0.000;2024-01-30T15:21:34;5.77;;;3.67;;
28958;SDS011;16066;0.000;0.000;2024-01-30T15:24:00;6.50;;;3.60;;
28958;SDS011;16066;0.000;0.000;2024-01-30T15:26:27;6.47;;;4.00;;
28958;SDS011;16066;0.000;0.000;2024-01-30T15:28:52;11.53;;;3.73;;
28958;SDS011;16066;0.000;0.000;2024-01-30T15:31:18;4.80;;;2.90;;
28958;SDS011;16066;0.000;0.000;2024-01-30T15:33:43;6.87;;;3.20;;
28958;SDS011;16066;0.000;0.000;2024-01-30T15:36:09;5.10;;;3.57;;
28958;SDS011;16066;0.000;0.000;2024-01-30T15:38:38;3.87;;;2.90;;
28958;SDS011;16066;0.000;0.000;2024-01-30T15:41:03;7.90;;;3.80;;
28958;SDS011;16066;0.000;0.000;2024-01-30T15:43:29;3.80;;;3.30;;
28958;SDS011;16066;0.000;0.000;2024-01-30T15:45:57;4.50;;;3.10;;
28958;SDS011;16066;0.000;0.000;2024-01-30T15:48:23;5.90;;;3.10;;
28958;SDS011;16066;0.000;0.000;2024-01-30T15:50:48;4.10;;;3.40;;
28958;SDS011;16066;0.000;0.000;2024-01-30T15:53:14;5.60;;;2.93;;
28958;SDS011;16066;0.000;0.000;2024-01-30T15:55:40;3.90;;;3.07;;
28958;SDS011;16066;0.000;0.000;2024-01-30T15:58:05;3.90;;;2.70;;
28958;SDS011;16066;0.000;0.000;2024-01-30T16:00:31;5.43;;;2.90;;
28958;SDS011;16066;0.000;0.000;2024-01-30T16:02:57;6.00;;;3.07;;
28958;SDS011;16066;0.000;0.000;2024-01-30T16:05:23;7.20;;;2.50;;
28958;SDS011;16066;0.000;0.000;2024-01-30T16:07:48;4.77;;;2.90;;
28958;SDS011;16066;0.000;0.000;2024-01-30T16:10:14;8.20;;;3.03;;
28958;SDS011;16066;0.000;0.000;2024-01-30T16:12:42;5.33;;;2.87;;
28958;SDS011;16066;0.000;0.000;2024-01-30T16:15:11;5.33;;;3.30;;
28958;SDS011;16066;0.000;0.000;2024-01-30T16:17:37;5.83;;;2.60;;
28958;SDS011;16066;0.000;0.000;2024-01-30T16:20:03;3.27;;;2.63;;
28958;SDS011;16066;0.000;0.000;2024-01-30T16:22:30;4.50;;;2.77;;
28958;SDS011;16066;0.000;0.000;2024-01-30T16:24:56;5.77;;;2.70;;
28958;SDS011;16066;0.000;0.000;2024-01-30T16:27:22;6.23;;;3.00;;
28958;SDS011;16066;0.000;0.000;2024-01-30T16:29:47;3.37;;;2.87;;
28958;SDS011;16066;0.000;0.000;2024-01-30T16:32:13;4.23;;;2.70;;
28958;SDS011;16066;0.000;0.000;2024-01-30T16:34:38;3.30;;;2.80;;
28958;SDS011;16066;0.000;0.000;2024-01-30T16:37:05;9.37;;;3.30;;
28958;SDS011;16066;0.000;0.000;2024-01-30T16:39:30;4.03;;;2.93;;
28958;SDS011;16066;0.000;0.000;2024-01-30T16:41:56;4.83;;;2.50;;
28958;SDS011;16066;0.000;0.000;2024-01-30T16:44:22;7.20;;;2.97;;
28958;SDS011;16066;0.000;0.000;2024-01-30T16:46:48;9.00;;;2.60;;
28958;SDS011;16066;0.000;0.000;2024-01-30T16:49:14;3.50;;;2.63;;
28958;SDS011;16066;0.000;0.000;2024-01-30T16:51:39;3.80;;;2.87;;
28958;SDS011;16066;0.000;0.000;2024-01-30T16:54:05;6.13;;;3.33;;
28958;SDS011;16066;0.000;0.000;2024-01-30T16:56:30;7.80;;;2.83;;
28958;SDS011;16066;0.000;0.000;2024-01-30T16:58:56;3.50;;;2.47;;
28958;SDS011;16066;0.000;0.000;2024-01-30T17:01:21;4.90;;;2.83;;
28958;SDS011;16066;0.000;0.000;2024-01-30T17:03:47;4.03;;;2.80;;
28958;SDS011;16066;0.000;0.000;2024-01-30T17:06:13;5.40;;;3.40;;
28958;SDS011;16066;0.000;0.000;2024-01-30T17:08:39;2.80;;;2.50;;
28958;SDS011;16066;0.000;0.000;2024-01-30T17:11:04;4.27;;;2.80;;
28958;SDS011;16066;0.000;0.000;2024-01-30T17:13:31;3.50;;;2.90;;
28958;SDS011;16066;0.000;0.000;2024-01-30T17:15:57;4.00;;;2.63;;
28958;SDS011;16066;0.000;0.000;2024-01-30T17:18:23;3.10;;;2.10;;
28958;SDS011;16066;0.000;0.000;2024-01-30T17:20:48;4.30;;;2.50;;
28958;SDS011;16066;0.000;0.000;2024-01-30T17:23:14;4.90;;;2.57;;
28958;SDS011;16066;0.000;0.000;2024-01-30T17:25:40;6.00;;;2.90;;
28958;SDS011;16066;0.000;0.000;2024-01-30T17:28:05;4.00;;;2.93;;
28958;SDS011;16066;0.000;0.000;2024-01-30T17:30:31;3.40;;;3.03;;
28958;SDS011;16066;0.000;0.000;2024-01-30T17:32:56;3.53;;;2.50;;
28958;SDS011;16066;0.000;0.000;2024-01-30T17:35:24;5.07;;;2.97;;
28958;SDS011;16066;0.000;0.000;2024-01-30T17:37:50;3.93;;;3.33;;
28958;SDS011;16066;0.000;0.000;2024-01-30T17:40:15;4.57;;;2.80;;
28958;SDS011;16066;0.000;0.000;2024-01-30T17:42:41;3.80;;;2.77;;
28958;SDS011;16066;0.000;0.000;2024-01-30T17:45:07;2.80;;;2.47;;
28958;SDS011;16066;0.000;0.000;2024-01-30T17:47:33;4.37;;;2.90;;
28958;SDS011;16066;0.000;0.000;2024-01-30T17:49:59;3.63;;;2.40;;
28958;SDS011;16066;0.000;0.000;2024-01-30T17:52:24;4.10;;;2.70;;
28958;SDS011;16066;0.000;0.000;2024-01-30T17:54:50;3.17;;;2.83;;
28958;SDS011;16066;0.000;0.000;2024-01-30T17:57:15;3.63;;;2.97;;
28958;SDS011;16066;0.000;0.000;2024-01-30T17:59:42;4.90;;;2.43;;
28958;SDS011;16066;0.000;0.000;2024-01-30T18:02:08;3.77;;;2.50;;
28958;SDS011;16066;0.000;0.000;2024-01-30T18:04:36;4.43;;;2.50;;
28958;SDS011;16066;0.000;0.000;2024-01-30T18:07:02;5.60;;;3.00;;
28958;SDS011;16066;0.000;0.000;2024-01-30T18:09:28;4.03;;;2.90;;
28958;SDS011;16066;0.000;0.000;2024-01-30T18:11:53;5.03;;;3.27;;
28958;SDS011;16066;0.000;0.000;2024-01-30T18:14:19;4.50;;;2.60;;
28958;SDS011;16066;0.000;0.000;2024-01-30T18:16:44;5.23;;;3.33;;
28958;SDS011;16066;0.000;0.000;2024-01-30T18:19:10;7.03;;;3.37;;
28958;SDS011;16066;0.000;0.000;2024-01-30T18:21:35;4.00;;;2.73;;
28958;SDS011;16066;0.000;0.000;2024-01-30T18:24:01;7.60;;;2.90;;
28958;SDS011;16066;0.000;0.000;2024-01-30T18:26:27;3.93;;;3.00;;
28958;SDS011;16066;0.000;0.000;2024-01-30T18:28:53;3.20;;;2.50;;
28958;SDS011;16066;0.000;0.000;2024-01-30T18:31:21;5.83;;;3.33;;
28958;SDS011;16066;0.000;0.000;2024-01-30T18:33:48;6.37;;;2.90;;
28958;SDS011;16066;0.000;0.000;2024-01-30T18:36:18;6.13;;;3.13;;
28958;SDS011;16066;0.000;0.000;2024-01-30T18:38:44;3.20;;;2.67;;
28958;SDS011;16066;0.000;0.000;2024-01-30T18:41:10;4.80;;;3.47;;
28958;SDS011;16066;0.000;0.000;2024-01-30T18:43:35;4.00;;;2.93;;
28958;SDS011;16066;0.000;0.000;2024-01-30T18:46:01;3.20;;;2.90;;
28958;SDS011;16066;0.000;0.000;2024-01-30T18:48:26;5.80;;;3.03;;
28958;SDS011;16066;0.000;0.000;2024-01-30T18:50:52;3.87;;;2.93;;
28958;SDS011;16066;0.000;0.000;2024-01-30T18:53:17;3.90;;;3.27;;
28958;SDS011;16066;0.000;0.000;2024-01-30T18:55:43;3.47;;;2.80;;
28958;SDS011;16066;0.000;0.000;2024-01-30T18:58:09;5.97;;;3.30;;
28958;SDS011;16066;0.000;0.000;2024-01-30T19:00:34;4.00;;;3.20;;
28958;SDS011;16066;0.000;0.000;2024-01-30T19:03:05;4.10;;;3.00;;
28958;SDS011;16066;0.000;0.000;2024-01-30T19:05:30;11.20;;;3.10;;
28958;SDS011;16066;0.000;0.000;2024-01-30T19:07:56;3.70;;;2.67;;
28958;SDS011;16066;0.000;0.000;2024-01-30T19:10:21;4.30;;;3.07;;
28958;SDS011;16066;0.000;0.000;2024-01-30T19:12:47;4.93;;;3.40;;
28958;SDS011;16066;0.000;0.000;2024-01-30T19:15:12;4.93;;;3.30;;
28958;SDS011;16066;0.000;0.000;2024-01-30T19:17:38;7.20;;;3.20;;
28958;SDS011;16066;0.000;0.000;2024-01-30T19:20:05;4.13;;;3.10;;
28958;SDS011;16066;0.000;0.000;2024-01-30T19:22:32;4.50;;;3.30;;
28958;SDS011;16066;0.000;0.000;2024-01-30T19:24:57;4.57;;;3.33;;
28958;SDS011;16066;0.000;0.000;2024-01-30T19:27:25;4.20;;;3.00;;
28958;SDS011;16066;0.000;0.000;2024-01-30T19:29:52;4.60;;;3.80;;
28958;SDS011;16066;0.000;0.000;2024-01-30T19:32:18;4.13;;;2.83;;
28958;SDS011;16066;0.000;0.000;2024-01-30T19:34:44;4.27;;;3.13;;
28958;SDS011;16066;0.000;0.000;2024-01-30T19:37:09;5.03;;;3.13;;
28958;SDS011;16066;0.000;0.000;2024-01-30T19:39:35;5.30;;;3.87;;
28958;SDS011;16066;0.000;0.000;2024-01-30T19:42:00;5.00;;;3.53;;
28958;SDS011;16066;0.000;0.000;2024-01-30T19:44:26;4.27;;;2.63;;
28958;SDS011;16066;0.000;0.000;2024-01-30T19:46:51;5.07;;;2.90;;
28958;SDS011;16066;0.000;0.000;2024-01-30T19:49:17;3.87;;;3.20;;
28958;SDS011;16066;0.000;0.000;2024-01-30T19:51:43;4.27;;;2.90;;
28958;SDS011;16066;0.000;0.000;2024-01-30T19:54:10;4.97;;;3.30;;
28958;SDS011;16066;0.000;0.000;2024-01-30T19:56:39;3.83;;;2.77;;
28958;SDS011;16066;0.000;0.000;2024-01-30T19:59:05;3.60;;;2.73;;
28958;SDS011;16066;0.000;0.000;2024-01-30T20:01:31;4.10;;;3.30;;
28958;SDS011;16066;0.000;0.000;2024-01-30T20:03:57;3.53;;;2.83;;
28958;SDS011;16066;0.000;0.000;2024-01-30T20:06:22;4.90;;;3.10;;
28958;SDS011;16066;0.000;0.000;2024-01-30T20:08:48;4.10;;;3.40;;
28958;SDS011;16066;0.000;0.000;2024-01-30T20:11:14;4.00;;;2.60;;
28958;SDS011;16066;0.000;0.000;2024-01-30T20:13:40;3.93;;;3.23;;
28958;SDS011;16066;0.000;0.000;2024-01-30T20:16:06;5.07;;;3.57;;
28958;SDS011;16066;0.000;0.000;2024-01-30T20:18:31;7.47;;;2.60;;
28958;SDS011;16066;0.000;0.000;2024-01-30T20:20:58;4.87;;;3.63;;
28958;SDS011;16066;0.000;0.000;2024-01-30T20:23:24;4.67;;;3.30;;
28958;SDS011;16066;0.000;0.000;2024-01-30T20:25:49;3.03;;;2.50;;
28958;SDS011;16066;0.000;0.000;2024-01-30T20:28:15;7.83;;;3.97;;
28958;SDS011;16066;0.000;0.000;2024-01-30T20:30:41;5.50;;;3.50;;
28958;SDS011;16066;0.000;0.000;2024-01-30T20:33:07;4.83;;;3.03;;
28958;SDS011;16066;0.000;0.000;2024-01-30T20:35:39;4.83;;;2.83;;
28958;SDS011;16066;0.000;0.000;2024-01-30T20:38:04;4.10;;;2.90;;
28958;SDS011;16066;0.000;0.000;2024-01-30T20:40:30;4.00;;;2.70;;
28958;SDS011;16066;0.000;0.000;2024-01-30T20:42:57;3.70;;;3.07;;
28958;SDS011;16066;0.000;0.000;2024-01-30T20:45:22;3.53;;;2.70;;
28958;SDS011;16066;0.000;0.000;2024-01-30T20:47:48;2.90;;;2.43;;